sensor_id;sensor_type;location;lat;lon;timestamp;temperature;humidity
76305;DHT22;65111;50.536;19.204;2023-04-15T00:01:27;10.00;89.70
76305;DHT22;65111;50.536;19.204;2023-04-15T00:03:54;9.90;89.70
76305;DHT22;65111;50.536;19.204;2023-04-15T00:06:21;9.80;90.00
76305;DHT22;65111;50.536;19.204;2023-04-15T00:08:47;9.80;90.10
76305;DHT22;65111;50.536;19.204;2023-04-15T00:11:16;9.70;90.20
76305;DHT22;65111;50.536;19.204;2023-04-15T00:13:43;9.60;90.20
76305;DHT22;65111;50.536;19.204;2023-04-15T00:16:10;9.50;90.30
76305;DHT22;65111;50.536;19.204;2023-04-15T00:18:37;9.40;90.30
76305;DHT22;65111;50.536;19.204;2023-04-15T00:21:04;9.40;90.60
76305;DHT22;65111;50.536;19.204;2023-04-15T00:23:30;9.30;90.80
76305;DHT22;65111;50.536;19.204;2023-04-15T00:25:56;9.20;91.00
76305;DHT22;65111;50.536;19.204;2023-04-15T00:28:22;9.10;91.40
76305;DHT22;65111;50.536;19.204;2023-04-15T00:30:49;9.10;91.70
76305;DHT22;65111;50.536;19.204;2023-04-15T00:33:15;9.10;91.90
76305;DHT22;65111;50.536;19.204;2023-04-15T00:35:41;9.10;92.00
76305;DHT22;65111;50.536;19.204;2023-04-15T00:38:07;9.10;92.10
76305;DHT22;65111;50.536;19.204;2023-04-15T00:40:34;9.20;92.10
76305;DHT22;65111;50.536;19.204;2023-04-15T00:43:00;9.20;91.90
76305;DHT22;65111;50.536;19.204;2023-04-15T00:45:26;9.10;92.00
76305;DHT22;65111;50.536;19.204;2023-04-15T00:47:53;9.00;92.10
76305;DHT22;65111;50.536;19.204;2023-04-15T00:50:19;9.10;92.40
76305;DHT22;65111;50.536;19.204;2023-04-15T00:52:45;9.10;92.40
76305;DHT22;65111;50.536;19.204;2023-04-15T00:55:11;9.20;92.40
76305;DHT22;65111;50.536;19.204;2023-04-15T00:57:38;9.10;92.30
76305;DHT22;65111;50.536;19.204;2023-04-15T01:00:06;9.20;92.30
76305;DHT22;65111;50.536;19.204;2023-04-15T01:02:36;9.10;92.20
76305;DHT22;65111;50.536;19.204;2023-04-15T01:05:03;9.20;92.10
76305;DHT22;65111;50.536;19.204;2023-04-15T01:07:30;9.30;92.00
76305;DHT22;65111;50.536;19.204;2023-04-15T01:09:56;9.20;91.90
76305;DHT22;65111;50.536;19.204;2023-04-15T01:12:23;9.20;91.80
76305;DHT22;65111;50.536;19.204;2023-04-15T01:14:52;9.40;91.50
76305;DHT22;65111;50.536;19.204;2023-04-15T01:17:18;9.40;91.40
76305;DHT22;65111;50.536;19.204;2023-04-15T01:19:44;9.30;91.30
76305;DHT22;65111;50.536;19.204;2023-04-15T01:22:11;9.30;91.30
76305;DHT22;65111;50.536;19.204;2023-04-15T01:24:37;9.20;91.30
76305;DHT22;65111;50.536;19.204;2023-04-15T01:27:04;9.20;91.00
76305;DHT22;65111;50.536;19.204;2023-04-15T01:29:36;9.20;90.90
76305;DHT22;65111;50.536;19.204;2023-04-15T01:32:03;9.20;91.10
76305;DHT22;65111;50.536;19.204;2023-04-15T01:34:29;9.10;91.10
76305;DHT22;65111;50.536;19.204;2023-04-15T01:36:55;9.10;91.40
76305;DHT22;65111;50.536;19.204;2023-04-15T01:39:21;9.10;91.30
76305;DHT22;65111;50.536;19.204;2023-04-15T01:41:47;9.00;91.40
76305;DHT22;65111;50.536;19.204;2023-04-15T01:44:13;9.10;91.50
76305;DHT22;65111;50.536;19.204;2023-04-15T01:46:39;9.10;91.40
76305;DHT22;65111;50.536;19.204;2023-04-15T01:49:06;9.10;91.30
76305;DHT22;65111;50.536;19.204;2023-04-15T01:51:32;9.10;91.10
76305;DHT22;65111;50.536;19.204;2023-04-15T01:53:58;9.00;91.30
76305;DHT22;65111;50.536;19.204;2023-04-15T01:56:25;9.00;91.30
76305;DHT22;65111;50.536;19.204;2023-04-15T01:58:52;9.10;91.30
76305;DHT22;65111;50.536;19.204;2023-04-15T02:01:18;9.00;91.20
76305;DHT22;65111;50.536;19.204;2023-04-15T02:03:44;8.90;91.30
76305;DHT22;65111;50.536;19.204;2023-04-15T02:06:11;9.10;91.10
76305;DHT22;65111;50.536;19.204;2023-04-15T02:08:37;9.10;91.10
76305;DHT22;65111;50.536;19.204;2023-04-15T02:11:03;9.10;90.90
76305;DHT22;65111;50.536;19.204;2023-04-15T02:13:29;9.00;91.00
76305;DHT22;65111;50.536;19.204;2023-04-15T02:15:56;9.00;90.90
76305;DHT22;65111;50.536;19.204;2023-04-15T02:18:22;8.90;91.00
76305;DHT22;65111;50.536;19.204;2023-04-15T02:20:50;9.10;90.80
76305;DHT22;65111;50.536;19.204;2023-04-15T02:23:17;9.00;90.90
76305;DHT22;65111;50.536;19.204;2023-04-15T02:25:42;9.00;90.80
76305;DHT22;65111;50.536;19.204;2023-04-15T02:28:08;9.00;90.80
76305;DHT22;65111;50.536;19.204;2023-04-15T02:30:34;8.90;90.70
76305;DHT22;65111;50.536;19.204;2023-04-15T02:33:01;8.90;90.70
76305;DHT22;65111;50.536;19.204;2023-04-15T02:35:27;8.90;90.70
76305;DHT22;65111;50.536;19.204;2023-04-15T02:37:53;8.90;90.60
76305;DHT22;65111;50.536;19.204;2023-04-15T02:40:19;8.90;90.50
76305;DHT22;65111;50.536;19.204;2023-04-15T02:42:45;8.80;90.50
76305;DHT22;65111;50.536;19.204;2023-04-15T02:45:11;8.60;90.30
76305;DHT22;65111;50.536;19.204;2023-04-15T02:47:37;8.60;90.60
76305;DHT22;65111;50.536;19.204;2023-04-15T02:50:09;8.50;90.50
76305;DHT22;65111;50.536;19.204;2023-04-15T02:52:41;8.50;90.50
76305;DHT22;65111;50.536;19.204;2023-04-15T02:55:08;8.50;90.40
76305;DHT22;65111;50.536;19.204;2023-04-15T02:57:34;8.50;90.60
76305;DHT22;65111;50.536;19.204;2023-04-15T03:00:06;8.30;90.80
76305;DHT22;65111;50.536;19.204;2023-04-15T03:02:35;8.50;91.00
76305;DHT22;65111;50.536;19.204;2023-04-15T03:05:01;8.30;91.00
76305;DHT22;65111;50.536;19.204;2023-04-15T03:07:27;8.40;91.10
76305;DHT22;65111;50.536;19.204;2023-04-15T03:09:53;8.40;91.00
76305;DHT22;65111;50.536;19.204;2023-04-15T03:12:19;8.40;91.10
76305;DHT22;65111;50.536;19.204;2023-04-15T03:14:46;8.40;91.30
76305;DHT22;65111;50.536;19.204;2023-04-15T03:17:12;8.40;91.20
76305;DHT22;65111;50.536;19.204;2023-04-15T03:19:37;8.40;91.20
76305;DHT22;65111;50.536;19.204;2023-04-15T03:22:03;8.40;91.20
76305;DHT22;65111;50.536;19.204;2023-04-15T03:24:29;8.30;91.30
76305;DHT22;65111;50.536;19.204;2023-04-15T03:26:56;8.30;91.20
76305;DHT22;65111;50.536;19.204;2023-04-15T03:29:23;8.20;91.20
76305;DHT22;65111;50.536;19.204;2023-04-15T03:31:51;8.30;91.30
76305;DHT22;65111;50.536;19.204;2023-04-15T03:34:17;8.20;91.20
76305;DHT22;65111;50.536;19.204;2023-04-15T03:36:43;8.20;91.30
76305;DHT22;65111;50.536;19.204;2023-04-15T03:39:09;8.10;91.20
76305;DHT22;65111;50.536;19.204;2023-04-15T03:41:35;8.10;91.00
76305;DHT22;65111;50.536;19.204;2023-04-15T03:44:01;8.00;90.90
76305;DHT22;65111;50.536;19.204;2023-04-15T03:46:27;8.00;91.00
76305;DHT22;65111;50.536;19.204;2023-04-15T03:48:53;7.80;91.00
76305;DHT22;65111;50.536;19.204;2023-04-15T03:51:19;7.80;90.90
76305;DHT22;65111;50.536;19.204;2023-04-15T03:53:46;7.60;91.10
76305;DHT22;65111;50.536;19.204;2023-04-15T03:56:12;7.70;91.20
76305;DHT22;65111;50.536;19.204;2023-04-15T03:58:37;7.50;91.30
76305;DHT22;65111;50.536;19.204;2023-04-15T04:01:03;7.50;91.40
76305;DHT22;65111;50.536;19.204;2023-04-15T04:03:29;7.50;91.40
76305;DHT22;65111;50.536;19.204;2023-04-15T04:05:55;7.40;91.40
76305;DHT22;65111;50.536;19.204;2023-04-15T04:08:21;7.50;91.40
76305;DHT22;65111;50.536;19.204;2023-04-15T04:10:47;7.40;91.60
76305;DHT22;65111;50.536;19.204;2023-04-15T04:13:13;7.30;91.60
76305;DHT22;65111;50.536;19.204;2023-04-15T04:15:39;7.50;91.50
76305;DHT22;65111;50.536;19.204;2023-04-15T04:18:05;7.30;91.60
76305;DHT22;65111;50.536;19.204;2023-04-15T04:20:31;7.30;91.70
76305;DHT22;65111;50.536;19.204;2023-04-15T04:22:58;7.40;91.80
76305;DHT22;65111;50.536;19.204;2023-04-15T04:25:24;7.40;91.80
76305;DHT22;65111;50.536;19.204;2023-04-15T04:27:50;7.40;91.80
76305;DHT22;65111;50.536;19.204;2023-04-15T04:30:16;7.40;91.80
76305;DHT22;65111;50.536;19.204;2023-04-15T04:32:42;7.50;91.80
76305;DHT22;65111;50.536;19.204;2023-04-15T04:35:08;7.70;91.70
76305;DHT22;65111;50.536;19.204;2023-04-15T04:37:34;7.60;91.70
76305;DHT22;65111;50.536;19.204;2023-04-15T04:40:00;7.80;91.60
76305;DHT22;65111;50.536;19.204;2023-04-15T04:42:26;7.80;91.30
76305;DHT22;65111;50.536;19.204;2023-04-15T04:44:52;7.80;91.30
76305;DHT22;65111;50.536;19.204;2023-04-15T04:47:18;7.70;91.30
76305;DHT22;65111;50.536;19.204;2023-04-15T04:49:44;7.80;91.40
76305;DHT22;65111;50.536;19.204;2023-04-15T04:52:10;7.70;91.60
76305;DHT22;65111;50.536;19.204;2023-04-15T04:54:36;7.80;91.70
76305;DHT22;65111;50.536;19.204;2023-04-15T04:57:02;7.90;91.70
76305;DHT22;65111;50.536;19.204;2023-04-15T04:59:28;7.90;91.90
76305;DHT22;65111;50.536;19.204;2023-04-15T05:01:54;8.10;91.80
76305;DHT22;65111;50.536;19.204;2023-04-15T05:04:21;8.10;91.80
76305;DHT22;65111;50.536;19.204;2023-04-15T05:06:47;8.30;91.70
76305;DHT22;65111;50.536;19.204;2023-04-15T05:09:12;8.40;91.50
76305;DHT22;65111;50.536;19.204;2023-04-15T05:11:38;8.40;91.60
76305;DHT22;65111;50.536;19.204;2023-04-15T05:14:05;8.60;91.50
76305;DHT22;65111;50.536;19.204;2023-04-15T05:16:31;8.70;91.40
76305;DHT22;65111;50.536;19.204;2023-04-15T05:18:57;8.70;91.20
76305;DHT22;65111;50.536;19.204;2023-04-15T05:21:24;9.00;91.00
76305;DHT22;65111;50.536;19.204;2023-04-15T05:23:51;9.00;90.60
76305;DHT22;65111;50.536;19.204;2023-04-15T05:26:17;9.00;90.50
76305;DHT22;65111;50.536;19.204;2023-04-15T05:28:42;9.20;90.20
76305;DHT22;65111;50.536;19.204;2023-04-15T05:31:08;9.20;89.90
76305;DHT22;65111;50.536;19.204;2023-04-15T05:33:35;9.30;89.70
76305;DHT22;65111;50.536;19.204;2023-04-15T05:36:01;9.20;89.40
76305;DHT22;65111;50.536;19.204;2023-04-15T05:38:27;9.30;89.30
76305;DHT22;65111;50.536;19.204;2023-04-15T05:40:53;9.40;89.00
76305;DHT22;65111;50.536;19.204;2023-04-15T05:43:19;9.40;88.70
76305;DHT22;65111;50.536;19.204;2023-04-15T05:45:45;9.50;88.50
76305;DHT22;65111;50.536;19.204;2023-04-15T05:48:11;9.50;88.30
76305;DHT22;65111;50.536;19.204;2023-04-15T05:50:42;9.50;88.10
76305;DHT22;65111;50.536;19.204;2023-04-15T05:53:08;9.60;88.00
76305;DHT22;65111;50.536;19.204;2023-04-15T05:55:34;9.70;88.00
76305;DHT22;65111;50.536;19.204;2023-04-15T05:58:00;9.70;87.70
76305;DHT22;65111;50.536;19.204;2023-04-15T06:00:26;9.90;87.60
76305;DHT22;65111;50.536;19.204;2023-04-15T06:02:52;10.00;87.40
76305;DHT22;65111;50.536;19.204;2023-04-15T06:05:18;10.10;87.30
76305;DHT22;65111;50.536;19.204;2023-04-15T06:07:44;10.20;87.10
76305;DHT22;65111;50.536;19.204;2023-04-15T06:10:11;10.30;86.90
76305;DHT22;65111;50.536;19.204;2023-04-15T06:12:37;10.50;86.70
76305;DHT22;65111;50.536;19.204;2023-04-15T06:15:04;10.80;86.60
76305;DHT22;65111;50.536;19.204;2023-04-15T06:17:31;11.10;86.10
76305;DHT22;65111;50.536;19.204;2023-04-15T06:19:57;11.30;85.60
76305;DHT22;65111;50.536;19.204;2023-04-15T06:22:23;11.70;85.20
76305;DHT22;65111;50.536;19.204;2023-04-15T06:24:49;12.00;84.80
76305;DHT22;65111;50.536;19.204;2023-04-15T06:27:16;12.50;84.30
76305;DHT22;65111;50.536;19.204;2023-04-15T06:29:42;12.80;83.20
76305;DHT22;65111;50.536;19.204;2023-04-15T06:32:08;13.20;82.40
76305;DHT22;65111;50.536;19.204;2023-04-15T06:34:34;13.50;82.00
76305;DHT22;65111;50.536;19.204;2023-04-15T06:37:00;13.90;81.40
76305;DHT22;65111;50.536;19.204;2023-04-15T06:39:26;14.40;80.80
76305;DHT22;65111;50.536;19.204;2023-04-15T06:41:52;14.90;79.90
76305;DHT22;65111;50.536;19.204;2023-04-15T06:44:18;15.70;77.40
76305;DHT22;65111;50.536;19.204;2023-04-15T06:46:44;16.40;75.20
76305;DHT22;65111;50.536;19.204;2023-04-15T06:49:10;17.00;73.50
76305;DHT22;65111;50.536;19.204;2023-04-15T06:51:37;17.50;71.80
76305;DHT22;65111;50.536;19.204;2023-04-15T06:54:03;18.30;69.90
76305;DHT22;65111;50.536;19.204;2023-04-15T06:56:32;19.00;66.90
76305;DHT22;65111;50.536;19.204;2023-04-15T06:58:58;19.60;65.90
76305;DHT22;65111;50.536;19.204;2023-04-15T07:01:24;20.20;64.40
76305;DHT22;65111;50.536;19.204;2023-04-15T07:03:50;20.40;62.80
76305;DHT22;65111;50.536;19.204;2023-04-15T07:06:17;20.40;62.20
76305;DHT22;65111;50.536;19.204;2023-04-15T07:08:43;20.10;61.80
76305;DHT22;65111;50.536;19.204;2023-04-15T07:11:09;19.90;61.80
76305;DHT22;65111;50.536;19.204;2023-04-15T07:13:35;19.70;60.40
76305;DHT22;65111;50.536;19.204;2023-04-15T07:16:01;19.70;58.90
76305;DHT22;65111;50.536;19.204;2023-04-15T07:18:27;19.80;59.60
76305;DHT22;65111;50.536;19.204;2023-04-15T07:20:53;20.30;58.50
76305;DHT22;65111;50.536;19.204;2023-04-15T07:23:19;21.00;56.50
76305;DHT22;65111;50.536;19.204;2023-04-15T07:25:45;21.60;54.90
76305;DHT22;65111;50.536;19.204;2023-04-15T07:28:12;22.00;54.10
76305;DHT22;65111;50.536;19.204;2023-04-15T07:30:37;22.50;53.20
76305;DHT22;65111;50.536;19.204;2023-04-15T07:33:04;23.50;51.40
76305;DHT22;65111;50.536;19.204;2023-04-15T07:35:30;24.50;49.50
76305;DHT22;65111;50.536;19.204;2023-04-15T07:37:56;25.70;47.40
76305;DHT22;65111;50.536;19.204;2023-04-15T07:40:22;26.90;46.10
76305;DHT22;65111;50.536;19.204;2023-04-15T07:42:48;28.20;43.80
76305;DHT22;65111;50.536;19.204;2023-04-15T07:45:14;29.50;42.30
76305;DHT22;65111;50.536;19.204;2023-04-15T07:47:41;30.40;40.50
76305;DHT22;65111;50.536;19.204;2023-04-15T07:50:08;31.10;39.30
76305;DHT22;65111;50.536;19.204;2023-04-15T07:52:35;31.50;39.10
76305;DHT22;65111;50.536;19.204;2023-04-15T07:55:05;31.40;38.70
76305;DHT22;65111;50.536;19.204;2023-04-15T07:57:36;31.20;39.10
76305;DHT22;65111;50.536;19.204;2023-04-15T08:00:03;30.70;38.90
76305;DHT22;65111;50.536;19.204;2023-04-15T08:02:30;30.50;38.20
76305;DHT22;65111;50.536;19.204;2023-04-15T08:04:57;30.40;38.10
76305;DHT22;65111;50.536;19.204;2023-04-15T08:07:23;30.30;37.90
76305;DHT22;65111;50.536;19.204;2023-04-15T08:09:50;30.20;37.80
76305;DHT22;65111;50.536;19.204;2023-04-15T08:12:16;31.20;37.40
76305;DHT22;65111;50.536;19.204;2023-04-15T08:14:42;32.50;36.20
76305;DHT22;65111;50.536;19.204;2023-04-15T08:17:08;34.10;34.50
76305;DHT22;65111;50.536;19.204;2023-04-15T08:19:34;35.50;33.10
76305;DHT22;65111;50.536;19.204;2023-04-15T08:22:00;36.90;32.30
76305;DHT22;65111;50.536;19.204;2023-04-15T08:24:27;38.40;31.80
76305;DHT22;65111;50.536;19.204;2023-04-15T08:26:53;39.20;31.20
76305;DHT22;65111;50.536;19.204;2023-04-15T08:29:19;39.30;30.70
76305;DHT22;65111;50.536;19.204;2023-04-15T08:31:45;39.10;30.40
76305;DHT22;65111;50.536;19.204;2023-04-15T08:34:12;38.60;30.50
76305;DHT22;65111;50.536;19.204;2023-04-15T08:36:38;37.30;30.40
76305;DHT22;65111;50.536;19.204;2023-04-15T08:39:04;35.90;30.80
76305;DHT22;65111;50.536;19.204;2023-04-15T08:41:41;34.80;31.20
76305;DHT22;65111;50.536;19.204;2023-04-15T08:44:11;33.80;31.60
76305;DHT22;65111;50.536;19.204;2023-04-15T08:46:40;33.90;31.80
76305;DHT22;65111;50.536;19.204;2023-04-15T08:49:10;33.90;31.50
76305;DHT22;65111;50.536;19.204;2023-04-15T08:51:41;33.10;31.40
76305;DHT22;65111;50.536;19.204;2023-04-15T08:54:08;31.50;31.80
76305;DHT22;65111;50.536;19.204;2023-04-15T08:56:35;29.60;32.80
76305;DHT22;65111;50.536;19.204;2023-04-15T08:59:02;27.80;34.10
76305;DHT22;65111;50.536;19.204;2023-04-15T09:01:28;26.00;34.70
76305;DHT22;65111;50.536;19.204;2023-04-15T09:03:55;24.30;35.80
76305;DHT22;65111;50.536;19.204;2023-04-15T09:06:22;22.90;36.90
76305;DHT22;65111;50.536;19.204;2023-04-15T09:08:49;21.90;37.80
76305;DHT22;65111;50.536;19.204;2023-04-15T09:11:17;21.10;38.60
76305;DHT22;65111;50.536;19.204;2023-04-15T09:13:44;20.80;39.80
76305;DHT22;65111;50.536;19.204;2023-04-15T09:16:12;20.60;40.00
76305;DHT22;65111;50.536;19.204;2023-04-15T09:18:39;20.60;40.20
76305;DHT22;65111;50.536;19.204;2023-04-15T09:21:08;20.40;40.30
76305;DHT22;65111;50.536;19.204;2023-04-15T09:23:37;20.50;40.20
76305;DHT22;65111;50.536;19.204;2023-04-15T09:26:04;20.40;40.60
76305;DHT22;65111;50.536;19.204;2023-04-15T09:28:30;20.30;40.50
76305;DHT22;65111;50.536;19.204;2023-04-15T09:31:00;20.30;40.60
76305;DHT22;65111;50.536;19.204;2023-04-15T09:33:29;20.40;40.50
76305;DHT22;65111;50.536;19.204;2023-04-15T09:35:56;20.60;40.30
76305;DHT22;65111;50.536;19.204;2023-04-15T09:38:23;21.00;39.70
76305;DHT22;65111;50.536;19.204;2023-04-15T09:40:49;21.20;39.70
76305;DHT22;65111;50.536;19.204;2023-04-15T09:43:16;21.80;39.40
76305;DHT22;65111;50.536;19.204;2023-04-15T09:45:50;22.70;39.20
76305;DHT22;65111;50.536;19.204;2023-04-15T09:48:24;24.50;37.20
76305;DHT22;65111;50.536;19.204;2023-04-15T09:50:59;26.30;35.80
76305;DHT22;65111;50.536;19.204;2023-04-15T09:53:26;27.30;34.60
76305;DHT22;65111;50.536;19.204;2023-04-15T09:55:58;27.60;34.10
76305;DHT22;65111;50.536;19.204;2023-04-15T09:58:28;27.40;34.20
76305;DHT22;65111;50.536;19.204;2023-04-15T10:00:55;26.80;34.30
76305;DHT22;65111;50.536;19.204;2023-04-15T10:03:24;26.20;34.60
76305;DHT22;65111;50.536;19.204;2023-04-15T10:05:51;25.30;35.30
76305;DHT22;65111;50.536;19.204;2023-04-15T10:08:23;24.40;35.70
76305;DHT22;65111;50.536;19.204;2023-04-15T10:10:53;23.50;36.50
76305;DHT22;65111;50.536;19.204;2023-04-15T10:13:23;22.70;37.10
76305;DHT22;65111;50.536;19.204;2023-04-15T10:15:57;22.00;37.70
76305;DHT22;65111;50.536;19.204;2023-04-15T10:18:25;21.50;38.20
76305;DHT22;65111;50.536;19.204;2023-04-15T10:20:52;21.10;38.30
76305;DHT22;65111;50.536;19.204;2023-04-15T10:23:19;21.00;38.50
76305;DHT22;65111;50.536;19.204;2023-04-15T10:25:50;20.60;39.30
76305;DHT22;65111;50.536;19.204;2023-04-15T10:28:16;20.30;39.60
76305;DHT22;65111;50.536;19.204;2023-04-15T10:30:42;19.80;39.70
76305;DHT22;65111;50.536;19.204;2023-04-15T10:33:10;19.40;40.20
76305;DHT22;65111;50.536;19.204;2023-04-15T10:35:36;18.90;40.90
76305;DHT22;65111;50.536;19.204;2023-04-15T10:40:53;18.40;42.40
76305;DHT22;65111;50.536;19.204;2023-04-15T10:43:24;18.20;42.60
76305;DHT22;65111;50.536;19.204;2023-04-15T10:45:53;18.10;43.00
76305;DHT22;65111;50.536;19.204;2023-04-15T10:48:19;18.20;42.90
76305;DHT22;65111;50.536;19.204;2023-04-15T10:50:55;18.20;42.70
76305;DHT22;65111;50.536;19.204;2023-04-15T10:53:29;18.30;42.10
76305;DHT22;65111;50.536;19.204;2023-04-15T10:55:56;18.40;42.00
76305;DHT22;65111;50.536;19.204;2023-04-15T10:58:23;18.70;41.70
76305;DHT22;65111;50.536;19.204;2023-04-15T11:00:52;19.00;41.70
76305;DHT22;65111;50.536;19.204;2023-04-15T11:03:38;19.40;41.40
76305;DHT22;65111;50.536;19.204;2023-04-15T11:06:05;19.70;41.00
76305;DHT22;65111;50.536;19.204;2023-04-15T11:08:59;20.10;40.70
76305;DHT22;65111;50.536;19.204;2023-04-15T11:12:10;20.70;40.20
76305;DHT22;65111;50.536;19.204;2023-04-15T11:14:39;22.10;38.30
76305;DHT22;65111;50.536;19.204;2023-04-15T11:17:06;23.30;37.20
76305;DHT22;65111;50.536;19.204;2023-04-15T11:19:37;24.00;36.50
76305;DHT22;65111;50.536;19.204;2023-04-15T11:22:10;24.60;36.00
76305;DHT22;65111;50.536;19.204;2023-04-15T11:24:46;25.10;34.80
76305;DHT22;65111;50.536;19.204;2023-04-15T11:27:22;25.00;34.60
76305;DHT22;65111;50.536;19.204;2023-04-15T11:29:48;24.90;34.40
76305;DHT22;65111;50.536;19.204;2023-04-15T11:32:14;25.30;34.20
76305;DHT22;65111;50.536;19.204;2023-04-15T11:34:40;25.80;33.50
76305;DHT22;65111;50.536;19.204;2023-04-15T11:37:06;26.00;33.30
76305;DHT22;65111;50.536;19.204;2023-04-15T11:39:33;25.70;33.70
76305;DHT22;65111;50.536;19.204;2023-04-15T11:41:59;25.70;33.80
76305;DHT22;65111;50.536;19.204;2023-04-15T11:44:25;25.90;33.90
76305;DHT22;65111;50.536;19.204;2023-04-15T11:46:51;26.10;33.90
76305;DHT22;65111;50.536;19.204;2023-04-15T11:49:30;26.30;34.10
76305;DHT22;65111;50.536;19.204;2023-04-15T11:51:58;27.00;32.70
76305;DHT22;65111;50.536;19.204;2023-04-15T11:54:26;27.30;32.00
76305;DHT22;65111;50.536;19.204;2023-04-15T11:56:51;27.00;32.20
76305;DHT22;65111;50.536;19.204;2023-04-15T11:59:19;26.60;32.40
76305;DHT22;65111;50.536;19.204;2023-04-15T12:01:45;26.20;32.80
76305;DHT22;65111;50.536;19.204;2023-04-15T12:04:14;25.90;33.20
76305;DHT22;65111;50.536;19.204;2023-04-15T12:06:42;25.50;33.30
76305;DHT22;65111;50.536;19.204;2023-04-15T12:09:10;25.10;34.00
76305;DHT22;65111;50.536;19.204;2023-04-15T12:16:55;23.90;34.50
76305;DHT22;65111;50.536;19.204;2023-04-15T12:19:36;23.50;34.70
76305;DHT22;65111;50.536;19.204;2023-04-15T12:22:05;23.20;34.90
76305;DHT22;65111;50.536;19.204;2023-04-15T12:24:32;23.00;34.90
76305;DHT22;65111;50.536;19.204;2023-04-15T12:27:06;23.00;35.10
76305;DHT22;65111;50.536;19.204;2023-04-15T12:29:34;23.10;35.50
76305;DHT22;65111;50.536;19.204;2023-04-15T12:32:14;23.20;35.40
76305;DHT22;65111;50.536;19.204;2023-04-15T12:34:50;23.20;35.30
76305;DHT22;65111;50.536;19.204;2023-04-15T12:37:16;23.20;35.50
76305;DHT22;65111;50.536;19.204;2023-04-15T12:39:45;23.00;35.50
76305;DHT22;65111;50.536;19.204;2023-04-15T12:42:14;23.00;35.70
76305;DHT22;65111;50.536;19.204;2023-04-15T12:44:40;23.00;35.60
76305;DHT22;65111;50.536;19.204;2023-04-15T12:47:08;22.90;35.40
76305;DHT22;65111;50.536;19.204;2023-04-15T12:49:34;22.60;35.30
76305;DHT22;65111;50.536;19.204;2023-04-15T12:52:01;22.40;35.40
76305;DHT22;65111;50.536;19.204;2023-04-15T12:54:29;22.10;35.70
76305;DHT22;65111;50.536;19.204;2023-04-15T12:56:56;21.90;35.70
76305;DHT22;65111;50.536;19.204;2023-04-15T12:59:23;21.50;36.00
76305;DHT22;65111;50.536;19.204;2023-04-15T13:01:50;21.30;36.60
76305;DHT22;65111;50.536;19.204;2023-04-15T13:04:18;21.00;36.90
76305;DHT22;65111;50.536;19.204;2023-04-15T13:06:45;21.00;36.90
76305;DHT22;65111;50.536;19.204;2023-04-15T13:09:11;20.80;37.50
76305;DHT22;65111;50.536;19.204;2023-04-15T13:11:38;20.70;37.60
76305;DHT22;65111;50.536;19.204;2023-04-15T13:14:05;20.50;37.60
76305;DHT22;65111;50.536;19.204;2023-04-15T13:16:32;20.50;37.70
76305;DHT22;65111;50.536;19.204;2023-04-15T13:18:59;20.50;38.00
76305;DHT22;65111;50.536;19.204;2023-04-15T13:21:25;20.60;38.20
76305;DHT22;65111;50.536;19.204;2023-04-15T13:23:52;20.50;37.60
76305;DHT22;65111;50.536;19.204;2023-04-15T13:26:18;20.20;37.90
76305;DHT22;65111;50.536;19.204;2023-04-15T13:28:44;19.90;38.10
76305;DHT22;65111;50.536;19.204;2023-04-15T13:31:11;19.60;38.30
76305;DHT22;65111;50.536;19.204;2023-04-15T13:33:37;19.30;38.90
76305;DHT22;65111;50.536;19.204;2023-04-15T13:36:03;19.10;39.60
76305;DHT22;65111;50.536;19.204;2023-04-15T13:38:30;18.70;40.00
76305;DHT22;65111;50.536;19.204;2023-04-15T13:40:56;18.20;40.30
76305;DHT22;65111;50.536;19.204;2023-04-15T13:43:22;17.70;41.10
76305;DHT22;65111;50.536;19.204;2023-04-15T13:45:48;17.40;41.20
76305;DHT22;65111;50.536;19.204;2023-04-15T13:48:14;17.20;41.60
76305;DHT22;65111;50.536;19.204;2023-04-15T13:50:40;17.20;41.60
76305;DHT22;65111;50.536;19.204;2023-04-15T13:53:12;17.20;41.70
76305;DHT22;65111;50.536;19.204;2023-04-15T13:55:39;17.20;41.50
76305;DHT22;65111;50.536;19.204;2023-04-15T13:58:08;17.30;41.40
76305;DHT22;65111;50.536;19.204;2023-04-15T14:00:35;17.30;41.10
76305;DHT22;65111;50.536;19.204;2023-04-15T14:03:01;17.40;41.20
76305;DHT22;65111;50.536;19.204;2023-04-15T14:05:27;17.50;41.50
76305;DHT22;65111;50.536;19.204;2023-04-15T14:07:53;17.50;41.90
76305;DHT22;65111;50.536;19.204;2023-04-15T14:10:19;17.50;41.70
76305;DHT22;65111;50.536;19.204;2023-04-15T14:12:45;17.60;41.50
76305;DHT22;65111;50.536;19.204;2023-04-15T14:15:11;17.60;41.50
76305;DHT22;65111;50.536;19.204;2023-04-15T14:17:38;17.70;41.40
76305;DHT22;65111;50.536;19.204;2023-04-15T14:20:06;17.70;41.50
76305;DHT22;65111;50.536;19.204;2023-04-15T14:22:32;17.70;41.70
76305;DHT22;65111;50.536;19.204;2023-04-15T14:24:58;17.80;41.50
76305;DHT22;65111;50.536;19.204;2023-04-15T14:27:25;17.80;41.60
76305;DHT22;65111;50.536;19.204;2023-04-15T14:29:51;17.80;44.50
76305;DHT22;65111;50.536;19.204;2023-04-15T14:32:18;17.70;47.10
76305;DHT22;65111;50.536;19.204;2023-04-15T14:34:45;17.40;48.30
76305;DHT22;65111;50.536;19.204;2023-04-15T14:37:11;17.10;49.40
76305;DHT22;65111;50.536;19.204;2023-04-15T14:39:37;16.80;51.80
76305;DHT22;65111;50.536;19.204;2023-04-15T14:42:04;16.40;54.50
76305;DHT22;65111;50.536;19.204;2023-04-15T14:44:30;16.00;54.50
76305;DHT22;65111;50.536;19.204;2023-04-15T14:46:57;15.60;54.50
76305;DHT22;65111;50.536;19.204;2023-04-15T14:49:23;15.20;56.40
76305;DHT22;65111;50.536;19.204;2023-04-15T14:51:49;14.90;57.60
76305;DHT22;65111;50.536;19.204;2023-04-15T14:54:15;14.60;59.00
76305;DHT22;65111;50.536;19.204;2023-04-15T14:56:41;14.50;59.20
76305;DHT22;65111;50.536;19.204;2023-04-15T14:59:08;14.30;57.70
76305;DHT22;65111;50.536;19.204;2023-04-15T15:01:34;14.30;58.90
76305;DHT22;65111;50.536;19.204;2023-04-15T15:04:00;14.10;57.40
76305;DHT22;65111;50.536;19.204;2023-04-15T15:06:26;14.10;58.00
76305;DHT22;65111;50.536;19.204;2023-04-15T15:08:53;14.00;60.00
76305;DHT22;65111;50.536;19.204;2023-04-15T15:11:19;13.90;60.90
76305;DHT22;65111;50.536;19.204;2023-04-15T15:13:45;13.80;61.30
76305;DHT22;65111;50.536;19.204;2023-04-15T15:16:12;13.90;61.90
76305;DHT22;65111;50.536;19.204;2023-04-15T15:18:38;13.70;61.40
76305;DHT22;65111;50.536;19.204;2023-04-15T15:21:04;13.70;61.90
76305;DHT22;65111;50.536;19.204;2023-04-15T15:23:30;13.70;63.00
76305;DHT22;65111;50.536;19.204;2023-04-15T15:25:57;13.50;63.60
76305;DHT22;65111;50.536;19.204;2023-04-15T15:28:23;13.50;63.90
76305;DHT22;65111;50.536;19.204;2023-04-15T15:30:50;13.60;63.50